Time;durP1;ratioP1;P1;durP2;ratioP2;P2;SDS_P1;SDS_P2;PMS_P1;PMS_P2;Temp;Humidity;BMP_temperature;BMP_pressure;BME280_temperature;BME280_humidity;BME280_pressure;Samples;Min_cycle;Max_cycle;Signal;HPM_P1;HPM_P2
2021/12/23 00:01:57;;;;;;;;;;;;;;;-6.66;100.00;101579.91;5597573;31;33435;-82
2021/12/23 00:05:09;;;;;;;;;;;;;;;-6.69;100.00;101577.31;5598148;31;33931;-82
2021/12/23 00:08:11;;;;;;;;;;;;;;;-6.68;100.00;101584.19;5596457;31;33438;-82
2021/12/23 00:11:14;;;;;;;;;;;;;;;-6.71;100.00;101573.91;5596519;31;33493;-82
2021/12/23 00:14:17;;;;;;;;;;;;;;;-6.81;100.00;101567.03;5596839;31;33858;-82
2021/12/23 00:23:28;;;;;;;;;;;;;;;-6.92;100.00;101552.44;5596594;31;33678;-82
2021/12/23 00:26:32;;;;;;;;;;;;;;;-6.95;100.00;101543.84;5596642;31;34226;-82
2021/12/23 00:29:36;;;;;;;;;;;;;;;-7.00;100.00;101549.00;5596414;31;32918;-82
2021/12/23 00:32:39;;;;;;;;;;;;;;;-6.89;100.00;101546.44;5596591;31;33487;-82
2021/12/23 00:35:46;;;;;;;;;;;;;;;-6.77;100.00;101548.16;5599135;31;34141;-82
2021/12/23 00:38:53;;;;;;;;;;;;;;;-6.77;100.00;101543.00;5596252;31;34603;-82
2021/12/23 00:42:05;;;;;;;;;;;;;;;-6.79;100.00;101544.72;5597319;31;34653;-82
2021/12/23 00:45:08;;;;;;;;;;;;;;;-6.86;100.00;101546.44;5596570;31;33839;-83
2021/12/23 00:48:11;;;;;;;;;;;;;;;-6.93;100.00;101537.88;5596527;31;34280;-82
2021/12/23 00:51:14;;;;;;;;;;;;;;;-7.03;100.00;101541.28;5596179;31;33825;-82
2021/12/23 00:54:17;;;;;;;;;;;;;;;-7.05;100.00;101538.69;5596032;31;34618;-82
2021/12/23 00:57:26;;;;;;;;;;;;;;;-7.14;100.00;101539.53;5596223;31;33670;-82
2021/12/23 01:00:29;;;;;;;;;;;;;;;-7.18;100.00;101547.25;5595645;31;34671;-82
2021/12/23 01:03:32;;;;;;;;;;;;;;;-7.19;100.00;101538.69;5596125;31;33597;-82
2021/12/23 01:06:36;;;;;;;;;;;;;;;-7.22;100.00;101533.53;5596310;31;33614;-82
2021/12/23 01:09:38;;;;;;;;;;;;;;;-7.22;100.00;101530.97;5596998;31;33913;-82
2021/12/23 01:12:46;;;;;;;;;;;;;;;-7.29;100.00;101527.53;5600305;31;35979;-82
2021/12/23 01:16:00;;;;;;;;;;;;;;;-7.29;100.00;101524.09;5596914;31;33555;-82
2021/12/23 01:19:10;;;;;;;;;;;;;;;-7.33;100.00;101530.09;5596510;31;33658;-82
2021/12/23 01:22:12;;;;;;;;;;;;;;;-7.38;100.00;101524.09;5596064;31;33394;-82
2021/12/23 01:25:17;;;;;;;;;;;;;;;-7.30;100.00;101527.53;5597105;31;34013;-82
2021/12/23 01:28:20;;;;;;;;;;;;;;;-7.35;100.00;101531.78;5598129;31;33858;-82
2021/12/23 01:31:25;;;;;;;;;;;;;;;-7.35;100.00;101518.94;5598755;31;33539;-82
2021/12/23 01:34:33;;;;;;;;;;;;;;;-7.40;100.00;101515.50;5598838;31;33635;-82
2021/12/23 01:37:36;;;;;;;;;;;;;;;-7.46;100.00;101516.38;5598645;31;34281;-82
2021/12/23 01:40:39;;;;;;;;;;;;;;;-7.50;100.00;101507.78;5598236;31;33817;-82
2021/12/23 01:43:42;;;;;;;;;;;;;;;-7.44;100.00;101504.37;5598742;31;33852;-82
2021/12/23 01:46:48;;;;;;;;;;;;;;;-7.44;100.00;101504.37;5598887;31;33163;-82
2021/12/23 01:49:51;;;;;;;;;;;;;;;-7.39;100.00;101506.94;5599995;31;33643;-82
2021/12/23 01:52:55;;;;;;;;;;;;;;;-7.43;100.00;101510.34;5598611;31;33972;-82
2021/12/23 01:55:58;;;;;;;;;;;;;;;-7.46;100.00;101504.34;5598151;31;33462;-82
2021/12/23 01:59:03;;;;;;;;;;;;;;;-7.49;100.00;101496.66;5597799;31;33231;-82
2021/12/23 02:02:06;;;;;;;;;;;;;;;-7.53;100.00;101484.63;5598055;31;34347;-82
2021/12/23 02:05:10;;;;;;;;;;;;;;;-7.50;100.00;101486.34;5598856;31;34615;-82
2021/12/23 02:08:13;;;;;;;;;;;;;;;-7.52;100.00;101486.34;5598615;31;33176;-82
2021/12/23 02:11:15;;;;;;;;;;;;;;;-7.51;100.00;101482.06;5599151;31;33575;-83
2021/12/23 02:14:19;;;;;;;;;;;;;;;-7.59;100.00;101474.31;5598648;31;33660;-82
2021/12/23 02:17:21;;;;;;;;;;;;;;;-7.59;100.00;101482.03;5598408;31;33981;-82
2021/12/23 02:20:31;;;;;;;;;;;;;;;-7.56;100.00;101474.34;5597886;31;34351;-82
2021/12/23 02:23:34;;;;;;;;;;;;;;;-7.56;100.00;101484.63;5598908;31;33595;-82
2021/12/23 02:26:39;;;;;;;;;;;;;;;-7.50;100.00;101483.78;5598044;31;33426;-82
2021/12/23 02:29:42;;;;;;;;;;;;;;;-7.40;100.00;101474.37;5598017;31;33620;-82
2021/12/23 02:32:47;;;;;;;;;;;;;;;-7.46;100.00;101476.06;5598019;31;33636;-82
2021/12/23 02:35:50;;;;;;;;;;;;;;;-7.49;100.00;101463.22;5598655;31;33725;-82
2021/12/23 02:38:53;;;;;;;;;;;;;;;-7.56;100.00;101463.22;5596833;31;33965;-82
2021/12/23 02:41:58;;;;;;;;;;;;;;;-7.61;100.00;101456.34;5597625;31;34520;-82
2021/12/23 02:45:04;;;;;;;;;;;;;;;-7.64;100.00;101452.91;5598666;31;34349;-82
2021/12/23 02:48:23;;;;;;;;;;;;;;;-7.60;100.00;101452.91;5599006;31;33667;-82
2021/12/23 02:51:27;;;;;;;;;;;;;;;-7.57;100.00;101446.06;5597062;31;33560;-82
2021/12/23 02:54:32;;;;;;;;;;;;;;;-7.58;100.00;101440.06;5598133;31;33762;-82
2021/12/23 02:57:35;;;;;;;;;;;;;;;-7.56;100.00;101430.63;5599810;31;33695;-82
2021/12/23 03:00:38;;;;;;;;;;;;;;;-7.59;100.00;101433.19;5598575;31;33400;-82
2021/12/23 03:03:44;;;;;;;;;;;;;;;-7.69;100.00;101432.34;5598165;31;33777;-82
2021/12/23 03:06:46;;;;;;;;;;;;;;;-7.74;100.00;101428.06;5598428;31;33717;-82
2021/12/23 03:09:49;;;;;;;;;;;;;;;-7.80;100.00;101423.75;5598584;31;33615;-82
2021/12/23 03:12:51;;;;;;;;;;;;;;;-7.85;100.00;101426.31;5598374;31;33905;-83
2021/12/23 03:15:54;;;;;;;;;;;;;;;-7.87;100.00;101417.75;5598950;31;33468;-82
2021/12/23 03:18:57;;;;;;;;;;;;;;;-7.85;100.00;101423.75;5597557;31;34098;-82
2021/12/23 03:22:00;;;;;;;;;;;;;;;-7.88;100.00;101428.88;5597662;31;34190;-82
2021/12/23 03:25:03;;;;;;;;;;;;;;;-7.83;100.00;101424.63;5597628;31;33746;-82
2021/12/23 03:28:05;;;;;;;;;;;;;;;-7.88;100.00;101423.72;5597338;31;34172;-82
2021/12/23 03:31:10;;;;;;;;;;;;;;;-7.92;100.00;101419.44;5597392;31;33800;-82
2021/12/23 03:34:15;;;;;;;;;;;;;;;-7.92;100.00;101417.72;5598147;31;33800;-82
2021/12/23 03:37:18;;;;;;;;;;;;;;;-7.93;100.00;101412.56;5598963;31;33670;-82
2021/12/23 03:40:21;;;;;;;;;;;;;;;-7.96;100.00;101402.31;5600270;31;33455;-82
2021/12/23 03:43:24;;;;;;;;;;;;;;;-7.97;100.00;101408.31;5598992;31;33660;-84
2021/12/23 03:46:27;;;;;;;;;;;;;;;-8.04;100.00;101404.84;5597531;31;34117;-82
2021/12/23 03:49:29;;;;;;;;;;;;;;;-8.03;100.00;101403.13;5598897;31;33959;-82
2021/12/23 03:52:32;;;;;;;;;;;;;;;-8.08;100.00;101409.13;5598609;31;33826;-82
2021/12/23 03:55:35;;;;;;;;;;;;;;;-8.04;100.00;101409.13;5597719;31;33893;-82
2021/12/23 03:58:38;;;;;;;;;;;;;;;-8.01;100.00;101409.13;5597954;31;33106;-82
2021/12/23 04:01:40;;;;;;;;;;;;;;;-8.03;100.00;101400.56;5598033;31;33445;-82
2021/12/23 04:04:43;;;;;;;;;;;;;;;-8.10;100.00;101395.44;5598102;31;33914;-82
2021/12/23 04:07:46;;;;;;;;;;;;;;;-8.10;100.00;101395.44;5598100;31;33752;-82
2021/12/23 04:10:49;;;;;;;;;;;;;;;-8.11;100.00;101398.84;5597725;31;33220;-82
2021/12/23 04:13:53;;;;;;;;;;;;;;;-8.10;100.00;101395.44;5598703;31;34247;-82
2021/12/23 04:16:56;;;;;;;;;;;;;;;-8.11;100.00;101387.72;5597748;31;33785;-82
2021/12/23 04:20:10;;;;;;;;;;;;;;;-8.13;100.00;101390.28;5598100;31;33460;-82
2021/12/23 04:23:15;;;;;;;;;;;;;;;-8.14;100.00;101388.56;5598890;31;33713;-82
2021/12/23 04:26:18;;;;;;;;;;;;;;;-8.08;100.00;101380.88;5597833;31;33661;-82
2021/12/23 04:29:21;;;;;;;;;;;;;;;-8.12;100.00;101381.72;5597161;31;33750;-82
2021/12/23 04:32:26;;;;;;;;;;;;;;;-8.09;100.00;101381.72;5597791;31;33539;-82
2021/12/23 04:35:29;;;;;;;;;;;;;;;-8.09;100.00;101380.84;5598052;31;34960;-82
2021/12/23 04:38:31;;;;;;;;;;;;;;;-8.07;100.00;101376.59;5599215;31;33615;-82
2021/12/23 04:41:34;;;;;;;;;;;;;;;-8.08;100.00;101368.03;5597567;31;33900;-82
2021/12/23 04:44:37;;;;;;;;;;;;;;;-8.09;100.00;101379.16;5597466;31;33870;-83
2021/12/23 04:47:40;;;;;;;;;;;;;;;-8.09;100.00;101376.59;5597891;31;33654;-83
2021/12/23 04:50:44;;;;;;;;;;;;;;;-8.12;100.00;101376.56;5597983;31;33672;-83
2021/12/23 04:53:47;;;;;;;;;;;;;;;-8.17;100.00;101369.72;5598050;31;33138;-83
2021/12/23 04:56:51;;;;;;;;;;;;;;;-8.23;100.00;101373.13;5597672;31;33774;-83
2021/12/23 04:59:53;;;;;;;;;;;;;;;-8.23;100.00;101368.00;5597878;31;34295;-83
2021/12/23 05:03:01;;;;;;;;;;;;;;;-8.27;100.00;101366.25;5602487;31;33907;-83
2021/12/23 05:06:04;;;;;;;;;;;;;;;-8.26;100.00;101362.84;5605651;31;34398;-83
2021/12/23 05:09:07;;;;;;;;;;;;;;;-8.22;100.00;101365.41;5605417;31;32079;-83
2021/12/23 05:12:12;;;;;;;;;;;;;;;-8.14;100.00;101368.00;5604462;31;33775;-83
2021/12/23 05:15:15;;;;;;;;;;;;;;;-8.03;100.00;101370.62;5604231;31;33407;-83
2021/12/23 05:18:20;;;;;;;;;;;;;;;-7.87;100.00;101365.50;5604838;31;33902;-84
2021/12/23 05:21:23;;;;;;;;;;;;;;;-7.80;100.00;101362.94;5604568;31;33849;-84
2021/12/23 05:24:25;;;;;;;;;;;;;;;-7.72;100.00;101360.38;5604479;31;34766;-83
2021/12/23 05:27:28;;;;;;;;;;;;;;;-7.61;100.00;101355.25;5605811;31;34385;-82
2021/12/23 05:30:31;;;;;;;;;;;;;;;-7.53;100.00;101345.81;5603994;31;33126;-83
2021/12/23 05:33:34;;;;;;;;;;;;;;;-7.34;100.00;101345.81;5603980;31;33711;-83
2021/12/23 05:36:38;;;;;;;;;;;;;;;-7.27;100.00;101350.09;5603312;31;33605;-83
2021/12/23 05:39:45;;;;;;;;;;;;;;;-7.16;100.00;101360.34;5604338;31;34435;-84
2021/12/23 05:42:51;;;;;;;;;;;;;;;-7.10;100.00;101354.34;5603393;31;33795;-83
2021/12/23 05:45:54;;;;;;;;;;;;;;;-6.98;100.00;101364.63;5603489;31;34714;-83
2021/12/23 05:48:56;;;;;;;;;;;;;;;-6.91;100.00;101366.31;5603457;31;33517;-83
2021/12/23 05:51:59;;;;;;;;;;;;;;;-6.87;100.00;101368.03;5604299;31;33903;-83
2021/12/23 05:55:03;;;;;;;;;;;;;;;-6.80;100.00;101368.00;5605602;31;33329;-83
2021/12/23 05:58:12;;;;;;;;;;;;;;;-6.79;100.00;101359.41;5604117;31;35881;-83
2021/12/23 06:01:15;;;;;;;;;;;;;;;-6.75;100.00;101358.56;5604638;31;33695;-83
2021/12/23 06:04:17;;;;;;;;;;;;;;;-6.71;100.00;101358.53;5603334;31;33687;-83
2021/12/23 06:07:21;;;;;;;;;;;;;;;-6.70;100.00;101361.97;5604182;31;33542;-83
2021/12/23 06:10:25;;;;;;;;;;;;;;;-6.71;100.00;101355.13;5606411;31;33081;-84
2021/12/23 06:13:27;;;;;;;;;;;;;;;-6.75;100.00;101346.53;5601521;31;33518;-84
2021/12/23 06:16:30;;;;;;;;;;;;;;;-6.63;100.00;101350.78;5600188;31;34390;-84
2021/12/23 06:19:33;;;;;;;;;;;;;;;-6.54;100.00;101349.91;5599737;31;33741;-84
2021/12/23 06:22:37;;;;;;;;;;;;;;;-6.40;100.00;101342.94;5599843;31;34075;-84
2021/12/23 06:25:39;;;;;;;;;;;;;;;-6.39;100.00;101354.12;5599458;31;34188;-84
2021/12/23 06:28:47;;;;;;;;;;;;;;;-6.37;100.00;101347.25;5599920;31;33459;-83
2021/12/23 06:31:49;;;;;;;;;;;;;;;-6.34;100.00;101347.22;5600670;31;33418;-84
2021/12/23 06:34:52;;;;;;;;;;;;;;;-6.26;100.00;101342.91;5598614;31;34071;-84
2021/12/23 06:37:55;;;;;;;;;;;;;;;-6.22;100.00;101342.00;5600169;31;34288;-83
2021/12/23 06:40:58;;;;;;;;;;;;;;;-6.24;100.00;101343.72;5599979;31;34771;-84
2021/12/23 06:44:00;;;;;;;;;;;;;;;-6.26;100.00;101335.19;5598711;31;33662;-84
2021/12/23 06:47:06;;;;;;;;;;;;;;;-6.25;100.00;101341.16;5598213;31;33591;-84
2021/12/23 06:50:12;;;;;;;;;;;;;;;-6.15;100.00;101347.12;5599094;31;33880;-83
2021/12/23 06:53:15;;;;;;;;;;;;;;;-6.19;100.00;101341.13;5598905;31;34964;-84
2021/12/23 06:56:18;;;;;;;;;;;;;;;-6.10;100.00;101345.37;5599769;31;33531;-84
2021/12/23 06:59:24;;;;;;;;;;;;;;;-6.07;100.00;101345.37;5598374;31;34298;-83
2021/12/23 07:02:27;;;;;;;;;;;;;;;-5.98;100.00;101349.59;5600421;31;34488;-84
2021/12/23 07:05:30;;;;;;;;;;;;;;;-5.97;100.00;101356.44;5598851;31;33964;-84
2021/12/23 07:08:35;;;;;;;;;;;;;;;-5.94;100.00;101346.97;5598550;31;33947;-84
2021/12/23 07:11:38;;;;;;;;;;;;;;;-5.89;100.00;101346.94;5598625;31;33380;-85
2021/12/23 07:14:41;;;;;;;;;;;;;;;-5.82;100.00;101345.19;5599635;31;33634;-85
2021/12/23 07:17:44;;;;;;;;;;;;;;;-5.61;100.00;101338.97;5597286;31;33978;-83
2021/12/23 07:20:49;;;;;;;;;;;;;;;-5.81;100.00;101336.56;5597422;31;33804;-83
2021/12/23 07:23:53;;;;;;;;;;;;;;;-5.73;100.00;101337.38;5598470;31;34665;-84
2021/12/23 07:26:55;;;;;;;;;;;;;;;-5.63;100.00;101336.44;5597768;31;33491;-85
2021/12/23 07:29:58;;;;;;;;;;;;;;;-5.51;100.00;101339.78;5598972;31;35879;-84
2021/12/23 07:33:00;;;;;;;;;;;;;;;-5.34;100.00;101337.03;5600359;31;34018;-84
2021/12/23 07:36:04;;;;;;;;;;;;;;;-5.32;100.00;101340.47;5600862;31;33867;-84
2021/12/23 07:39:07;;;;;;;;;;;;;;;-5.39;100.00;101339.66;5600307;31;33617;-83
2021/12/23 07:42:32;;;;;;;;;;;;;;;-5.33;100.00;101347.34;5600320;31;33734;-84
2021/12/23 07:45:34;;;;;;;;;;;;;;;-5.24;100.00;101345.56;5601246;31;34601;-84
2021/12/23 07:48:38;;;;;;;;;;;;;;;-5.09;100.00;101342.81;5601426;31;33239;-83
2021/12/23 07:51:40;;;;;;;;;;;;;;;-5.03;100.00;101327.28;5600567;31;33911;-85
2021/12/23 07:54:46;;;;;;;;;;;;;;;-4.79;100.00;101317.56;5599722;31;34439;-84
2021/12/23 07:57:49;;;;;;;;;;;;;;;-4.66;100.00;101316.50;5599118;31;33602;-84
2021/12/23 08:00:52;;;;;;;;;;;;;;;-4.58;100.00;101318.16;5598520;31;33693;-85
2021/12/23 08:03:55;;;;;;;;;;;;;;;-4.84;100.00;101301.25;5585351;31;33580;-85
2021/12/23 08:07:02;;;;;;;;;;;;;;;-4.47;100.00;101299.94;5598598;31;33935;-84
2021/12/23 08:10:05;;;;;;;;;;;;;;;-4.44;100.00;101302.47;5599072;31;33743;-85
2021/12/23 08:13:10;;;;;;;;;;;;;;;-4.57;100.00;101299.22;5599309;31;33197;-83
2021/12/23 08:16:15;;;;;;;;;;;;;;;-4.47;100.00;101294.75;5598632;31;34742;-84
2021/12/23 08:19:18;;;;;;;;;;;;;;;-4.31;100.00;101290.22;5596965;31;33965;-84
2021/12/23 08:22:22;;;;;;;;;;;;;;;-4.37;100.00;101292.03;5597569;31;33637;-84
2021/12/23 08:25:25;;;;;;;;;;;;;;;-4.30;100.00;101297.09;5598224;31;33734;-84
2021/12/23 08:28:27;;;;;;;;;;;;;;;-4.34;100.00;101285.97;5598470;31;34210;-84
2021/12/23 08:31:30;;;;;;;;;;;;;;;-4.09;100.00;101283.03;5598524;31;33303;-85
2021/12/23 08:34:38;;;;;;;;;;;;;;;-3.98;99.85;101288.03;5598050;31;34483;-84
2021/12/23 08:37:45;;;;;;;;;;;;;;;-4.03;99.16;101280.34;5600139;31;33739;-84
2021/12/23 08:40:52;;;;;;;;;;;;;;;-4.21;100.00;101286.62;5598322;31;34878;-84
2021/12/23 08:43:54;;;;;;;;;;;;;;;-3.84;100.00;101286.06;5597726;31;33418;-84
2021/12/23 08:46:57;;;;;;;;;;;;;;;-3.58;97.57;101292.56;5598267;31;33722;-84
2021/12/23 08:50:00;;;;;;;;;;;;;;;-3.56;96.04;101277.87;5598170;31;33425;-84
2021/12/23 08:53:03;;;;;;;;;;;;;;;-3.49;94.40;101282.03;5596834;31;33682;-84
2021/12/23 08:56:08;;;;;;;;;;;;;;;-3.37;94.34;101280.13;5596933;31;33938;-84
2021/12/23 08:59:11;;;;;;;;;;;;;;;-3.44;92.71;101285.41;5596850;31;33569;-84
2021/12/23 09:02:14;;;;;;;;;;;;;;;-3.32;96.50;101286.06;5596644;31;33734;-84
2021/12/23 09:05:20;;;;;;;;;;;;;;;-3.14;95.41;101287.44;5597025;31;34378;-84
2021/12/23 09:08:22;;;;;;;;;;;;;;;-3.05;93.06;101281.25;5597098;31;34222;-84
2021/12/23 09:11:26;;;;;;;;;;;;;;;-2.78;92.01;101281.59;5596498;31;33883;-84
2021/12/23 09:14:29;;;;;;;;;;;;;;;-2.56;91.59;101271.59;5596076;31;33580;-84
2021/12/23 09:17:32;;;;;;;;;;;;;;;-2.60;89.58;101259.63;5596356;31;33158;-84
2021/12/23 09:20:38;;;;;;;;;;;;;;;-2.50;88.77;101249.00;5595533;31;33418;-84
2021/12/23 09:23:42;;;;;;;;;;;;;;;-2.71;80.55;101241.72;5596101;31;34292;-84
2021/12/23 09:26:58;;;;;;;;;;;;;;;-2.43;76.75;101243.69;5595552;31;33768;-84
2021/12/23 09:33:22;;;;;;;;;;;;;;;-2.71;86.60;101227.03;5596054;31;33577;-84
2021/12/23 09:36:28;;;;;;;;;;;;;;;-2.97;90.52;101219.78;5597814;31;33738;-84
2021/12/23 09:39:30;;;;;;;;;;;;;;;-2.62;91.12;101218.19;5596000;31;33377;-83
2021/12/23 09:42:33;;;;;;;;;;;;;;;-2.95;86.32;101215.44;5595103;31;33476;-83
2021/12/23 09:45:40;;;;;;;;;;;;;;;-2.95;89.39;101205.09;5596330;31;33654;-84
2021/12/23 09:48:44;;;;;;;;;;;;;;;-2.80;89.27;101209.94;5597185;31;34689;-84
2021/12/23 09:51:48;;;;;;;;;;;;;;;-2.76;91.92;101209.87;5598343;31;33871;-84
2021/12/23 09:54:52;;;;;;;;;;;;;;;-2.77;90.81;101206.44;5597828;31;33338;-84
2021/12/23 09:57:56;;;;;;;;;;;;;;;-2.50;90.40;101199.78;5598594;31;33879;-84
2021/12/23 10:01:00;;;;;;;;;;;;;;;-2.42;88.16;101199.59;5597819;31;34236;-84
2021/12/23 10:04:03;;;;;;;;;;;;;;;-2.21;88.42;101193.06;5597557;31;33615;-84
2021/12/23 10:07:06;;;;;;;;;;;;;;;-2.44;87.78;101192.75;5598606;31;33520;-84
2021/12/23 10:10:20;;;;;;;;;;;;;;;-2.38;88.86;101190.00;5598264;31;34449;-84
2021/12/23 10:37:35;;;;;;;;;;;;;;;-1.09;78.80;101140.78;5597173;31;33436;-84
2021/12/23 10:40:40;;;;;;;;;;;;;;;-1.33;80.24;101134.53;5598803;31;33499;-84
2021/12/23 10:43:45;;;;;;;;;;;;;;;-1.47;79.57;101119.34;5597237;31;33279;-83
2021/12/23 10:46:47;;;;;;;;;;;;;;;-1.42;80.63;101117.50;5599143;31;33623;-83
2021/12/23 10:50:16;;;;;;;;;;;;;;;-1.53;79.75;101109.16;5597809;31;33740;-85
2021/12/23 11:00:20;;;;;;;;;;;;;;;-1.55;70.40;101083.25;5597817;31;33697;-84
2021/12/23 11:03:39;;;;;;;;;;;;;;;-1.27;69.46;101072.88;5598413;31;33819;-83
2021/12/23 11:06:45;;;;;;;;;;;;;;;-1.32;68.20;101074.78;5598204;31;34466;-83
2021/12/23 11:10:04;;;;;;;;;;;;;;;-1.21;67.82;101060.63;5582601;31;32417;-83
2021/12/23 11:31:37;;;;;;;;;;;;;;;-0.87;64.49;101012.81;5596351;31;33433;-84
2021/12/23 11:43:49;;;;;;;;;;;;;;;-0.40;64.24;100991.31;5597533;31;33138;-84
2021/12/23 11:46:56;;;;;;;;;;;;;;;-0.25;63.29;100969.09;5598075;31;33822;-84
2021/12/23 11:49:59;;;;;;;;;;;;;;;-0.40;64.16;100971.38;5598477;31;33909;-84
2021/12/23 11:53:03;;;;;;;;;;;;;;;-0.21;63.89;100970.69;5598216;31;34203;-85
2021/12/23 11:56:09;;;;;;;;;;;;;;;-0.16;64.01;100968.75;5597782;31;33776;-85
2021/12/23 11:59:16;;;;;;;;;;;;;;;-0.05;63.04;100966.63;5597302;31;33834;-85
2021/12/23 12:02:20;;;;;;;;;;;;;;;-0.23;62.70;100960.38;5598802;31;33612;-85
2021/12/23 12:05:26;;;;;;;;;;;;;;;-0.43;63.04;100945.47;5596487;31;33508;-84
2021/12/23 12:08:29;;;;;;;;;;;;;;;-0.29;62.63;100936.31;5597280;31;34111;-84
2021/12/23 12:11:32;;;;;;;;;;;;;;;-0.11;63.47;100929.59;5595343;31;33826;-84
2021/12/23 12:14:40;;;;;;;;;;;;;;;-0.15;61.86;100931.44;5596175;31;33337;-84
2021/12/23 12:17:46;;;;;;;;;;;;;;;-0.19;62.53;100937.69;5595608;31;33760;-84
2021/12/23 12:20:59;;;;;;;;;;;;;;;-0.02;62.17;100924.87;5597330;31;33601;-84
2021/12/23 12:24:23;;;;;;;;;;;;;;;0.01;61.99;100923.91;5596315;31;34254;-84
2021/12/23 12:27:30;;;;;;;;;;;;;;;0.10;61.37;100917.53;5597287;31;33980;-84
2021/12/23 12:30:49;;;;;;;;;;;;;;;0.02;59.86;100927.38;5596943;31;34180;-84
2021/12/23 12:33:55;;;;;;;;;;;;;;;-0.07;60.32;100906.03;5596945;31;34359;-84
2021/12/23 12:36:59;;;;;;;;;;;;;;;-0.16;59.99;100911.53;5596341;31;34469;-84
2021/12/23 12:40:02;;;;;;;;;;;;;;;-0.20;61.67;100899.56;5596664;31;33953;-84
2021/12/23 12:43:25;;;;;;;;;;;;;;;0.11;60.55;100895.81;5595798;31;33912;-84
2021/12/23 12:46:33;;;;;;;;;;;;;;;-0.12;60.26;100887.13;5597187;31;34026;-84
2021/12/23 12:49:44;;;;;;;;;;;;;;;-0.16;60.05;100885.53;5598006;31;32987;-84
2021/12/23 12:52:49;;;;;;;;;;;;;;;-0.05;60.28;100883.38;5596247;31;33780;-84
2021/12/23 12:55:51;;;;;;;;;;;;;;;-0.07;60.45;100877.41;5597723;31;33395;-84
2021/12/23 12:58:54;;;;;;;;;;;;;;;-0.11;60.87;100873.22;5596530;31;33671;-84
2021/12/23 13:02:00;;;;;;;;;;;;;;;-0.05;60.35;100878.16;5595460;31;33582;-84
2021/12/23 13:05:05;;;;;;;;;;;;;;;-0.23;61.26;100878.88;5595678;31;33822;-84
2021/12/23 13:08:16;;;;;;;;;;;;;;;-0.18;59.65;100870.00;5595387;31;33812;-84
2021/12/23 13:11:21;;;;;;;;;;;;;;;-0.19;59.45;100862.25;5597147;31;33601;-84
2021/12/23 13:14:55;;;;;;;;;;;;;;;-0.21;60.20;100851.06;5596695;31;33588;-84
2021/12/23 13:18:18;;;;;;;;;;;;;;;-0.22;59.55;100844.16;5595701;31;33595;-84
2021/12/23 13:21:23;;;;;;;;;;;;;;;-0.41;60.65;100839.66;5595207;31;33515;-84
2021/12/23 13:24:28;;;;;;;;;;;;;;;-0.30;58.88;100830.63;5597565;31;33566;-84
2021/12/23 13:27:31;;;;;;;;;;;;;;;-0.29;58.55;100837.50;5597922;31;34223;-83
2021/12/23 13:30:38;;;;;;;;;;;;;;;-0.35;59.09;100834.22;5600177;31;33408;-83
2021/12/23 13:33:50;;;;;;;;;;;;;;;-0.34;58.30;100830.72;5598184;31;33003;-83
2021/12/23 13:36:54;;;;;;;;;;;;;;;-0.46;58.86;100825.97;5597674;31;33369;-83
2021/12/23 13:39:56;;;;;;;;;;;;;;;-0.48;59.37;100812.19;5598050;31;34197;-83
2021/12/23 13:43:01;;;;;;;;;;;;;;;-0.39;58.87;100811.00;5598328;31;33845;-83
2021/12/23 13:46:05;;;;;;;;;;;;;;;-0.36;59.87;100806.53;5596952;31;33663;-84
2021/12/23 13:49:08;;;;;;;;;;;;;;;-0.42;57.46;100801.56;5599130;31;33518;-84
2021/12/23 13:52:23;;;;;;;;;;;;;;;-0.58;58.61;100792.66;5601405;31;33186;-83
2021/12/23 13:55:26;;;;;;;;;;;;;;;-0.48;59.83;100787.06;5599578;31;34133;-83
2021/12/23 13:58:29;;;;;;;;;;;;;;;-0.42;58.74;100796.37;5598411;31;34082;-83
2021/12/23 14:01:32;;;;;;;;;;;;;;;-0.44;59.52;100790.38;5597778;31;33431;-83
2021/12/23 14:04:43;;;;;;;;;;;;;;;-0.63;59.18;100785.91;5597524;31;33874;-83
2021/12/23 14:07:46;;;;;;;;;;;;;;;-0.63;59.11;100783.28;5597656;31;34163;-83
2021/12/23 14:10:49;;;;;;;;;;;;;;;-0.57;58.85;100786.56;5598054;31;33258;-83
2021/12/23 14:13:52;;;;;;;;;;;;;;;-0.53;59.55;100794.16;5597333;31;34000;-83
2021/12/23 14:16:59;;;;;;;;;;;;;;;-0.74;59.11;100795.84;5597478;31;34646;-84
2021/12/23 14:23:36;;;;;;;;;;;;;;;-0.85;59.37;100761.59;5597668;31;34118;-84
2021/12/23 14:26:41;;;;;;;;;;;;;;;-0.89;60.19;100750.47;5597530;31;35239;-83
2021/12/23 14:29:47;;;;;;;;;;;;;;;-0.83;58.44;100755.44;5583824;31;33598;-83
2021/12/23 14:33:05;;;;;;;;;;;;;;;-0.76;59.81;100750.88;5598781;31;33462;-82
2021/12/23 14:36:10;;;;;;;;;;;;;;;-0.65;59.13;100748.72;5596660;31;33621;-83
2021/12/23 14:39:35;;;;;;;;;;;;;;;-0.94;59.82;100736.81;5598987;31;33826;-83
2021/12/23 14:42:38;;;;;;;;;;;;;;;-0.95;60.18;100741.13;5597662;31;33640;-83
2021/12/23 14:45:42;;;;;;;;;;;;;;;-0.99;60.48;100739.59;5597773;31;33872;-83
2021/12/23 14:52:14;;;;;;;;;;;;;;;-0.92;59.98;100750.59;5597887;31;33247;-83
2021/12/23 14:55:18;;;;;;;;;;;;;;;-1.00;60.85;100748.28;5597514;31;33226;-82
2021/12/23 14:58:21;;;;;;;;;;;;;;;-1.04;60.92;100746.69;5597483;31;33411;-82
2021/12/23 15:01:24;;;;;;;;;;;;;;;-1.10;60.69;100746.91;5598974;31;33783;-84
2021/12/23 15:04:27;;;;;;;;;;;;;;;-1.09;61.13;100749.44;5597259;31;33902;-84
2021/12/23 15:07:47;;;;;;;;;;;;;;;-1.13;61.49;100758.28;5596806;31;33885;-82
2021/12/23 15:10:49;;;;;;;;;;;;;;;-1.20;61.30;100755.94;5597859;31;33478;-82
2021/12/23 15:13:52;;;;;;;;;;;;;;;-1.22;61.70;100695.44;5597166;31;33780;-83
2021/12/23 15:17:01;;;;;;;;;;;;;;;-1.25;61.68;100718.00;5598798;31;34418;-83
2021/12/23 15:20:20;;;;;;;;;;;;;;;-1.28;62.12;100728.47;5597579;31;33503;-82
2021/12/23 15:24:01;;;;;;;;;;;;;;;-1.26;61.31;100698.13;5596080;31;34666;-82
2021/12/23 15:27:06;;;;;;;;;;;;;;;-1.26;61.75;100698.13;5516787;32;33647;-83
2021/12/23 15:30:17;;;;;;;;;;;;;;;-1.40;61.65;100703.81;5516331;32;34328;-83
2021/12/23 15:33:24;;;;;;;;;;;;;;;-1.38;61.33;100680.41;5596710;31;33263;-82
2021/12/23 15:36:27;;;;;;;;;;;;;;;-1.34;61.93;100678.53;5595480;31;34039;-82
2021/12/23 15:39:29;;;;;;;;;;;;;;;-1.28;62.70;100676.56;5599151;31;34003;-82
2021/12/23 15:42:32;;;;;;;;;;;;;;;-1.25;62.75;100671.25;5598673;31;33431;-82
2021/12/23 15:45:38;;;;;;;;;;;;;;;-1.33;62.08;100659.47;5596346;31;33186;-84
2021/12/23 15:48:41;;;;;;;;;;;;;;;-1.31;62.74;100645.53;5596469;31;34150;-84
2021/12/23 15:51:44;;;;;;;;;;;;;;;-1.34;62.62;100635.25;5596170;31;33200;-82
2021/12/23 15:54:47;;;;;;;;;;;;;;;-1.30;63.39;100633.41;5595725;31;34022;-81
2021/12/23 15:57:50;;;;;;;;;;;;;;;-1.32;62.96;100636.06;5595969;31;33463;-81
2021/12/23 16:00:52;;;;;;;;;;;;;;;-1.42;62.48;100626.91;5596965;31;33672;-84
2021/12/23 16:03:56;;;;;;;;;;;;;;;-1.38;64.03;100625.06;5595996;31;33482;-84
2021/12/23 16:07:18;;;;;;;;;;;;;;;-1.34;63.47;100624.03;5596324;31;34122;-84
2021/12/23 16:10:23;;;;;;;;;;;;;;;-1.37;64.31;100619.78;5596761;31;33523;-85
2021/12/23 16:13:25;;;;;;;;;;;;;;;-1.30;64.26;100616.09;5596744;31;33072;-84
2021/12/23 16:16:33;;;;;;;;;;;;;;;-1.35;63.84;100618.00;5596523;31;33719;-84
2021/12/23 16:19:36;;;;;;;;;;;;;;;-1.42;64.60;100608.75;5596647;31;33579;-84
2021/12/23 16:22:40;;;;;;;;;;;;;;;-1.36;63.52;100597.28;5597372;31;33698;-84
2021/12/23 16:25:45;;;;;;;;;;;;;;;-1.39;63.21;100574.88;5596418;31;33895;-83
2021/12/23 16:28:54;;;;;;;;;;;;;;;-1.41;63.36;100571.50;5598058;31;34064;-83
2021/12/23 16:31:59;;;;;;;;;;;;;;;-1.50;64.26;100587.41;5597254;31;34319;-83
2021/12/23 16:35:02;;;;;;;;;;;;;;;-1.50;63.72;100582.22;5595862;31;34402;-83
2021/12/23 16:38:05;;;;;;;;;;;;;;;-1.47;63.06;100585.56;5595632;31;33774;-83
2021/12/23 16:41:09;;;;;;;;;;;;;;;-1.50;63.67;100587.41;5596414;31;33543;-83
2021/12/23 16:44:12;;;;;;;;;;;;;;;-1.50;64.41;100577.03;5596215;31;33985;-83
2021/12/23 16:47:15;;;;;;;;;;;;;;;-1.58;64.64;100583.34;5595703;31;33819;-82
2021/12/23 16:50:17;;;;;;;;;;;;;;;-1.66;63.64;100593.19;5596385;31;34898;-84
2021/12/23 16:53:21;;;;;;;;;;;;;;;-1.66;65.11;100582.81;5596571;31;34311;-84
2021/12/23 16:57:33;;;;;;;;;;;;;;;-1.69;64.52;100575.13;5595754;31;33346;-82
2021/12/23 16:59:50;;;;;;;;;;;;;;;-1.70;64.19;100555.25;5597243;31;33839;-82